sensor_id;sensor_type;location;lat;lon;timestamp;pressure;altitude;pressure_sealevel;temperature;humidity
35716;BME280;21840;44.920;8.616;2023-06-22T00:00:45;100702.09;;;29.60;33.78
35716;BME280;21840;44.920;8.616;2023-06-22T00:03:10;100695.97;;;29.48;34.14
35716;BME280;21840;44.920;8.616;2023-06-22T00:05:36;100694.34;;;29.46;34.31
35716;BME280;21840;44.920;8.616;2023-06-22T00:08:03;100699.31;;;29.55;34.08
35716;BME280;21840;44.920;8.616;2023-06-22T00:10:30;100695.78;;;29.54;34.33
35716;BME280;21840;44.920;8.616;2023-06-22T00:12:55;100697.19;;;29.57;34.60
35716;BME280;21840;44.920;8.616;2023-06-22T00:15:21;100703.34;;;29.52;34.83
35716;BME280;21840;44.920;8.616;2023-06-22T00:17:46;100700.53;;;29.42;34.71
35716;BME280;21840;44.920;8.616;2023-06-22T00:20:12;100703.41;;;29.35;35.01
35716;BME280;21840;44.920;8.616;2023-06-22T00:22:39;100705.41;;;29.23;34.39
35716;BME280;21840;44.920;8.616;2023-06-22T00:25:08;100712.28;;;29.09;35.10
35716;BME280;21840;44.920;8.616;2023-06-22T00:27:34;100703.66;;;28.78;35.53
35716;BME280;21840;44.920;8.616;2023-06-22T00:30:03;100698.16;;;28.90;35.28
35716;BME280;21840;44.920;8.616;2023-06-22T00:32:29;100693.94;;;28.77;35.45
35716;BME280;21840;44.920;8.616;2023-06-22T00:34:54;100701.81;;;28.62;36.41
35716;BME280;21840;44.920;8.616;2023-06-22T00:37:20;100715.19;;;28.39;36.23
35716;BME280;21840;44.920;8.616;2023-06-22T00:39:48;100708.09;;;28.33;37.39
35716;BME280;21840;44.920;8.616;2023-06-22T00:42:14;100700.44;;;28.30;36.63
35716;BME280;21840;44.920;8.616;2023-06-22T00:44:39;100699.13;;;28.33;36.36
35716;BME280;21840;44.920;8.616;2023-06-22T00:47:06;100692.16;;;28.03;37.05
35716;BME280;21840;44.920;8.616;2023-06-22T00:49:32;100696.53;;;28.38;36.27
35716;BME280;21840;44.920;8.616;2023-06-22T00:51:57;100698.22;;;28.10;36.82
35716;BME280;21840;44.920;8.616;2023-06-22T00:54:24;100705.19;;;28.40;36.08
35716;BME280;21840;44.920;8.616;2023-06-22T00:56:53;100702.00;;;28.26;36.49
35716;BME280;21840;44.920;8.616;2023-06-22T00:59:21;100700.72;;;28.00;37.11
35716;BME280;21840;44.920;8.616;2023-06-22T01:01:46;100691.03;;;28.16;36.91
35716;BME280;21840;44.920;8.616;2023-06-22T01:04:12;100694.28;;;28.18;36.58
35716;BME280;21840;44.920;8.616;2023-06-22T01:06:47;100695.63;;;27.87;37.50
35716;BME280;21840;44.920;8.616;2023-06-22T01:09:22;100695.09;;;28.02;37.47
35716;BME280;21840;44.920;8.616;2023-06-22T01:11:56;100699.06;;;28.11;37.41
35716;BME280;21840;44.920;8.616;2023-06-22T01:14:34;100691.97;;;27.93;37.73
35716;BME280;21840;44.920;8.616;2023-06-22T01:17:05;100681.91;;;27.77;37.08
35716;BME280;21840;44.920;8.616;2023-06-22T01:22:03;100668.81;;;27.68;36.50
35716;BME280;21840;44.920;8.616;2023-06-22T01:30:11;100682.94;;;27.87;37.62
35716;BME280;21840;44.920;8.616;2023-06-22T01:32:40;100692.06;;;27.98;37.18
35716;BME280;21840;44.920;8.616;2023-06-22T01:35:07;100692.84;;;27.70;38.33
35716;BME280;21840;44.920;8.616;2023-06-22T01:37:35;100698.25;;;27.82;38.10
35716;BME280;21840;44.920;8.616;2023-06-22T01:40:02;100706.00;;;27.66;37.94
35716;BME280;21840;44.920;8.616;2023-06-22T01:42:31;100702.75;;;27.52;38.12
35716;BME280;21840;44.920;8.616;2023-06-22T01:44:59;100713.81;;;27.80;37.70
35716;BME280;21840;44.920;8.616;2023-06-22T01:47:26;100700.53;;;27.61;37.61
35716;BME280;21840;44.920;8.616;2023-06-22T01:49:53;100700.97;;;27.58;37.53
35716;BME280;21840;44.920;8.616;2023-06-22T01:52:19;100691.22;;;27.28;37.68
35716;BME280;21840;44.920;8.616;2023-06-22T01:54:46;100684.69;;;27.53;37.52
35716;BME280;21840;44.920;8.616;2023-06-22T01:57:12;100680.03;;;27.48;37.50
35716;BME280;21840;44.920;8.616;2023-06-22T01:59:53;100680.16;;;27.42;37.99
35716;BME280;21840;44.920;8.616;2023-06-22T02:02:24;100679.03;;;27.66;37.54
35716;BME280;21840;44.920;8.616;2023-06-22T02:05:00;100678.06;;;27.44;37.83
35716;BME280;21840;44.920;8.616;2023-06-22T02:07:32;100681.66;;;27.78;37.33
35716;BME280;21840;44.920;8.616;2023-06-22T02:10:03;100681.91;;;27.77;37.45
35716;BME280;21840;44.920;8.616;2023-06-22T02:12:32;100680.25;;;27.75;37.48
35716;BME280;21840;44.920;8.616;2023-06-22T02:14:59;100675.31;;;27.96;36.69
35716;BME280;21840;44.920;8.616;2023-06-22T02:17:26;100675.47;;;28.06;36.55
35716;BME280;21840;44.920;8.616;2023-06-22T02:19:52;100670.88;;;28.07;36.61
35716;BME280;21840;44.920;8.616;2023-06-22T02:22:17;100675.38;;;28.01;36.39
35716;BME280;21840;44.920;8.616;2023-06-22T02:24:43;100672.69;;;28.01;36.80
35716;BME280;21840;44.920;8.616;2023-06-22T02:27:09;100678.50;;;28.10;37.69
35716;BME280;21840;44.920;8.616;2023-06-22T02:29:36;100687.94;;;28.24;37.69
35716;BME280;21840;44.920;8.616;2023-06-22T02:32:02;100693.31;;;28.07;37.21
35716;BME280;21840;44.920;8.616;2023-06-22T02:34:29;100698.19;;;27.93;37.89
35716;BME280;21840;44.920;8.616;2023-06-22T02:36:54;100694.75;;;27.98;38.14
35716;BME280;21840;44.920;8.616;2023-06-22T02:39:22;100698.91;;;27.89;35.67
35716;BME280;21840;44.920;8.616;2023-06-22T02:41:53;100691.69;;;28.06;33.61
35716;BME280;21840;44.920;8.616;2023-06-22T02:44:21;100700.91;;;27.93;33.30
35716;BME280;21840;44.920;8.616;2023-06-22T02:46:48;100707.28;;;28.04;33.43
35716;BME280;21840;44.920;8.616;2023-06-22T02:49:14;100709.84;;;27.70;33.48
35716;BME280;21840;44.920;8.616;2023-06-22T02:51:46;100713.00;;;27.39;33.92
35716;BME280;21840;44.920;8.616;2023-06-22T02:54:13;100714.63;;;27.40;34.13
35716;BME280;21840;44.920;8.616;2023-06-22T02:56:38;100702.94;;;27.74;34.70
35716;BME280;21840;44.920;8.616;2023-06-22T02:59:06;100695.06;;;27.85;35.93
35716;BME280;21840;44.920;8.616;2023-06-22T03:01:37;100693.03;;;27.92;35.54
35716;BME280;21840;44.920;8.616;2023-06-22T03:04:15;100693.25;;;27.90;36.08
35716;BME280;21840;44.920;8.616;2023-06-22T03:06:41;100683.44;;;27.84;36.44
35716;BME280;21840;44.920;8.616;2023-06-22T03:09:07;100683.44;;;27.72;36.89
35716;BME280;21840;44.920;8.616;2023-06-22T03:11:34;100682.88;;;27.70;36.98
35716;BME280;21840;44.920;8.616;2023-06-22T03:14:00;100682.22;;;27.63;37.66
35716;BME280;21840;44.920;8.616;2023-06-22T03:16:27;100678.19;;;27.37;37.79
35716;BME280;21840;44.920;8.616;2023-06-22T03:18:53;100673.34;;;27.51;37.42
35716;BME280;21840;44.920;8.616;2023-06-22T03:21:21;100674.69;;;27.65;37.10
35716;BME280;21840;44.920;8.616;2023-06-22T03:23:47;100671.03;;;27.71;36.70
35716;BME280;21840;44.920;8.616;2023-06-22T03:26:19;100668.16;;;27.90;36.74
35716;BME280;21840;44.920;8.616;2023-06-22T03:28:44;100666.66;;;27.82;37.19
35716;BME280;21840;44.920;8.616;2023-06-22T03:31:10;100667.44;;;27.66;37.38
35716;BME280;21840;44.920;8.616;2023-06-22T03:33:38;100667.13;;;27.79;37.31
35716;BME280;21840;44.920;8.616;2023-06-22T03:36:04;100662.44;;;27.74;36.98
35716;BME280;21840;44.920;8.616;2023-06-22T03:38:30;100666.59;;;27.65;37.25
35716;BME280;21840;44.920;8.616;2023-06-22T03:40:56;100658.69;;;27.75;37.14
35716;BME280;21840;44.920;8.616;2023-06-22T03:43:23;100648.53;;;27.66;37.04
35716;BME280;21840;44.920;8.616;2023-06-22T03:45:48;100651.47;;;27.64;36.80
35716;BME280;21840;44.920;8.616;2023-06-22T03:48:14;100667.34;;;27.78;36.56
35716;BME280;21840;44.920;8.616;2023-06-22T03:50:39;100677.91;;;27.50;36.95
35716;BME280;21840;44.920;8.616;2023-06-22T03:53:05;100668.06;;;27.73;36.33
35716;BME280;21840;44.920;8.616;2023-06-22T03:55:30;100663.88;;;27.65;36.98
35716;BME280;21840;44.920;8.616;2023-06-22T03:57:56;100657.53;;;27.71;37.04
35716;BME280;21840;44.920;8.616;2023-06-22T04:00:23;100672.59;;;27.56;36.95
35716;BME280;21840;44.920;8.616;2023-06-22T04:02:49;100674.81;;;27.18;39.23
35716;BME280;21840;44.920;8.616;2023-06-22T04:05:15;100670.78;;;27.44;38.81
35716;BME280;21840;44.920;8.616;2023-06-22T04:07:42;100660.91;;;27.38;38.81
35716;BME280;21840;44.920;8.616;2023-06-22T04:10:08;100652.75;;;27.09;39.12
35716;BME280;21840;44.920;8.616;2023-06-22T04:12:34;100649.00;;;27.34;38.27
35716;BME280;21840;44.920;8.616;2023-06-22T04:14:59;100660.72;;;27.28;38.05
35716;BME280;21840;44.920;8.616;2023-06-22T04:17:25;100677.78;;;27.45;37.56
35716;BME280;21840;44.920;8.616;2023-06-22T04:19:51;100692.69;;;27.48;37.94
35716;BME280;21840;44.920;8.616;2023-06-22T04:22:16;100711.13;;;27.16;38.11
35716;BME280;21840;44.920;8.616;2023-06-22T04:24:42;100722.03;;;27.09;38.69
35716;BME280;21840;44.920;8.616;2023-06-22T04:27:07;100709.25;;;26.93;37.92
35716;BME280;21840;44.920;8.616;2023-06-22T04:29:33;100699.50;;;27.15;36.85
35716;BME280;21840;44.920;8.616;2023-06-22T04:31:59;100711.47;;;27.43;36.40
35716;BME280;21840;44.920;8.616;2023-06-22T04:34:29;100705.75;;;26.92;35.78
35716;BME280;21840;44.920;8.616;2023-06-22T04:36:55;100707.59;;;27.15;37.00
35716;BME280;21840;44.920;8.616;2023-06-22T04:39:20;100713.16;;;27.08;37.00
35716;BME280;21840;44.920;8.616;2023-06-22T04:41:49;100704.09;;;27.03;37.02
35716;BME280;21840;44.920;8.616;2023-06-22T04:44:19;100706.78;;;26.56;37.46
35716;BME280;21840;44.920;8.616;2023-06-22T04:46:58;100719.06;;;26.52;37.85
35716;BME280;21840;44.920;8.616;2023-06-22T04:49:30;100745.78;;;26.65;37.76
35716;BME280;21840;44.920;8.616;2023-06-22T04:51:59;100752.03;;;25.68;40.38
35716;BME280;21840;44.920;8.616;2023-06-22T04:54:25;100744.81;;;25.87;40.74
35716;BME280;21840;44.920;8.616;2023-06-22T04:56:51;100746.63;;;26.35;40.40
35716;BME280;21840;44.920;8.616;2023-06-22T04:59:23;100741.72;;;26.74;39.83
35716;BME280;21840;44.920;8.616;2023-06-22T05:04:22;100736.59;;;27.20;39.62
35716;BME280;21840;44.920;8.616;2023-06-22T05:06:49;100741.91;;;25.89;42.89
35716;BME280;21840;44.920;8.616;2023-06-22T05:09:15;100733.50;;;26.57;41.64
35716;BME280;21840;44.920;8.616;2023-06-22T05:11:40;100733.44;;;26.45;42.52
35716;BME280;21840;44.920;8.616;2023-06-22T05:14:06;100728.16;;;26.51;42.70
35716;BME280;21840;44.920;8.616;2023-06-22T05:16:32;100729.66;;;27.12;41.54
35716;BME280;21840;44.920;8.616;2023-06-22T05:18:58;100727.31;;;27.27;41.50
35716;BME280;21840;44.920;8.616;2023-06-22T05:21:25;100719.50;;;27.66;40.77
35716;BME280;21840;44.920;8.616;2023-06-22T05:23:52;100728.22;;;27.45;41.27
35716;BME280;21840;44.920;8.616;2023-06-22T05:26:20;100731.81;;;27.74;40.36
35716;BME280;21840;44.920;8.616;2023-06-22T05:28:46;100742.19;;;27.94;40.01
35716;BME280;21840;44.920;8.616;2023-06-22T05:31:15;100738.16;;;28.08;39.46
35716;BME280;21840;44.920;8.616;2023-06-22T05:33:43;100740.91;;;27.32;40.55
35716;BME280;21840;44.920;8.616;2023-06-22T05:36:09;100744.31;;;27.28;40.88
35716;BME280;21840;44.920;8.616;2023-06-22T05:38:36;100755.56;;;27.37;40.66
35716;BME280;21840;44.920;8.616;2023-06-22T05:41:02;100755.19;;;27.45;40.79
35716;BME280;21840;44.920;8.616;2023-06-22T05:43:28;100750.22;;;27.65;39.66
35716;BME280;21840;44.920;8.616;2023-06-22T05:45:53;100751.81;;;27.14;40.43
35716;BME280;21840;44.920;8.616;2023-06-22T05:48:19;100752.75;;;27.43;39.71
35716;BME280;21840;44.920;8.616;2023-06-22T05:50:44;100739.34;;;27.60;38.87
35716;BME280;21840;44.920;8.616;2023-06-22T05:53:10;100737.28;;;27.91;38.34
35716;BME280;21840;44.920;8.616;2023-06-22T05:55:36;100737.19;;;27.86;38.13
35716;BME280;21840;44.920;8.616;2023-06-22T05:58:01;100747.13;;;28.26;37.70
35716;BME280;21840;44.920;8.616;2023-06-22T06:00:28;100752.69;;;28.36;37.36
35716;BME280;21840;44.920;8.616;2023-06-22T06:02:54;100755.13;;;28.66;36.88
35716;BME280;21840;44.920;8.616;2023-06-22T06:05:19;100762.47;;;28.88;37.39
35716;BME280;21840;44.920;8.616;2023-06-22T06:07:45;100764.19;;;29.28;37.15
35716;BME280;21840;44.920;8.616;2023-06-22T06:10:11;100769.16;;;29.58;36.62
35716;BME280;21840;44.920;8.616;2023-06-22T06:12:37;100772.13;;;29.73;35.33
35716;BME280;21840;44.920;8.616;2023-06-22T06:15:03;100761.38;;;29.61;34.53
35716;BME280;21840;44.920;8.616;2023-06-22T06:17:29;100759.28;;;29.85;33.89
35716;BME280;21840;44.920;8.616;2023-06-22T06:19:54;100748.88;;;29.77;32.76
35716;BME280;21840;44.920;8.616;2023-06-22T06:22:20;100753.59;;;29.87;33.11
35716;BME280;21840;44.920;8.616;2023-06-22T06:24:48;100747.44;;;30.19;32.23
35716;BME280;21840;44.920;8.616;2023-06-22T06:27:13;100738.38;;;30.08;32.71
35716;BME280;21840;44.920;8.616;2023-06-22T06:29:39;100737.53;;;30.29;31.94
35716;BME280;21840;44.920;8.616;2023-06-22T06:32:05;100728.38;;;30.36;32.25
35716;BME280;21840;44.920;8.616;2023-06-22T06:34:31;100731.03;;;30.63;31.61
35716;BME280;21840;44.920;8.616;2023-06-22T06:36:56;100733.22;;;30.66;32.01
35716;BME280;21840;44.920;8.616;2023-06-22T06:39:24;100726.25;;;30.80;31.85
35716;BME280;21840;44.920;8.616;2023-06-22T06:41:50;100717.88;;;30.82;31.67
35716;BME280;21840;44.920;8.616;2023-06-22T06:44:18;100706.13;;;31.03;31.21
35716;BME280;21840;44.920;8.616;2023-06-22T06:46:44;100703.72;;;31.12;30.72
35716;BME280;21840;44.920;8.616;2023-06-22T06:49:09;100691.69;;;31.45;30.54
35716;BME280;21840;44.920;8.616;2023-06-22T06:51:35;100682.22;;;31.53;30.72
35716;BME280;21840;44.920;8.616;2023-06-22T06:54:01;100683.06;;;31.74;30.39
35716;BME280;21840;44.920;8.616;2023-06-22T06:56:28;100682.50;;;31.62;30.84
35716;BME280;21840;44.920;8.616;2023-06-22T06:58:54;100703.09;;;31.52;31.08
35716;BME280;21840;44.920;8.616;2023-06-22T07:01:20;100705.22;;;31.40;30.79
35716;BME280;21840;44.920;8.616;2023-06-22T07:03:46;100709.72;;;31.19;30.95
35716;BME280;21840;44.920;8.616;2023-06-22T07:06:12;100717.94;;;31.34;30.72
35716;BME280;21840;44.920;8.616;2023-06-22T07:08:38;100730.25;;;31.05;30.78
35716;BME280;21840;44.920;8.616;2023-06-22T07:11:05;100734.94;;;31.14;29.98
35716;BME280;21840;44.920;8.616;2023-06-22T07:13:31;100730.91;;;31.22;30.00
35716;BME280;21840;44.920;8.616;2023-06-22T07:15:56;100731.25;;;31.36;29.97
35716;BME280;21840;44.920;8.616;2023-06-22T07:18:22;100738.19;;;31.16;29.99
35716;BME280;21840;44.920;8.616;2023-06-22T07:20:47;100737.72;;;31.30;29.61
35716;BME280;21840;44.920;8.616;2023-06-22T07:23:13;100733.47;;;31.44;29.02
35716;BME280;21840;44.920;8.616;2023-06-22T07:25:38;100739.78;;;31.60;28.74
35716;BME280;21840;44.920;8.616;2023-06-22T07:28:06;100732.28;;;31.30;30.09
35716;BME280;21840;44.920;8.616;2023-06-22T07:30:33;100746.94;;;31.29;30.45
35716;BME280;21840;44.920;8.616;2023-06-22T07:32:59;100743.44;;;31.33;30.19
35716;BME280;21840;44.920;8.616;2023-06-22T07:35:30;100744.81;;;30.88;30.66
35716;BME280;21840;44.920;8.616;2023-06-22T07:37:56;100757.19;;;31.16;30.41
35716;BME280;21840;44.920;8.616;2023-06-22T07:40:21;100764.16;;;31.02;29.89
35716;BME280;21840;44.920;8.616;2023-06-22T07:42:47;100756.34;;;30.73;30.41
35716;BME280;21840;44.920;8.616;2023-06-22T07:45:17;100753.00;;;30.99;30.66
35716;BME280;21840;44.920;8.616;2023-06-22T07:47:43;100753.84;;;31.04;30.68
35716;BME280;21840;44.920;8.616;2023-06-22T07:50:09;100755.13;;;30.91;30.93
35716;BME280;21840;44.920;8.616;2023-06-22T07:52:35;100744.88;;;31.41;30.59
35716;BME280;21840;44.920;8.616;2023-06-22T07:55:00;100740.28;;;31.47;30.48
35716;BME280;21840;44.920;8.616;2023-06-22T07:57:27;100746.91;;;31.76;30.31
35716;BME280;21840;44.920;8.616;2023-06-22T08:00:01;100748.66;;;31.40;30.77
35716;BME280;21840;44.920;8.616;2023-06-22T08:02:38;100744.47;;;31.85;30.42
35716;BME280;21840;44.920;8.616;2023-06-22T08:05:04;100746.44;;;32.00;30.39
35716;BME280;21840;44.920;8.616;2023-06-22T08:07:29;100746.72;;;31.98;30.93
35716;BME280;21840;44.920;8.616;2023-06-22T08:09:58;100741.88;;;31.43;32.37
35716;BME280;21840;44.920;8.616;2023-06-22T08:12:23;100741.56;;;32.02;31.31
35716;BME280;21840;44.920;8.616;2023-06-22T08:14:49;100735.56;;;32.05;31.82
35716;BME280;21840;44.920;8.616;2023-06-22T08:17:15;100730.38;;;31.88;32.35
35716;BME280;21840;44.920;8.616;2023-06-22T08:19:40;100716.78;;;31.88;32.67
35716;BME280;21840;44.920;8.616;2023-06-22T08:22:06;100711.97;;;32.00;32.45
35716;BME280;21840;44.920;8.616;2023-06-22T08:24:32;100716.38;;;32.53;31.63
35716;BME280;21840;44.920;8.616;2023-06-22T08:26:57;100735.63;;;32.41;31.97
35716;BME280;21840;44.920;8.616;2023-06-22T08:29:23;100735.38;;;32.73;31.38
35716;BME280;21840;44.920;8.616;2023-06-22T08:31:48;100726.63;;;33.07;30.67
35716;BME280;21840;44.920;8.616;2023-06-22T08:34:13;100721.72;;;33.09;30.08
35716;BME280;21840;44.920;8.616;2023-06-22T08:36:39;100707.44;;;33.48;29.41
35716;BME280;21840;44.920;8.616;2023-06-22T08:39:08;100705.25;;;33.45;28.65
35716;BME280;21840;44.920;8.616;2023-06-22T08:41:34;100692.09;;;33.72;27.40
35716;BME280;21840;44.920;8.616;2023-06-22T08:43:59;100688.44;;;33.33;27.29
35716;BME280;21840;44.920;8.616;2023-06-22T08:46:25;100688.69;;;33.36;27.75
35716;BME280;21840;44.920;8.616;2023-06-22T08:48:56;100689.78;;;33.90;27.58
35716;BME280;21840;44.920;8.616;2023-06-22T08:51:23;100702.59;;;34.29;27.18
35716;BME280;21840;44.920;8.616;2023-06-22T08:53:51;100693.94;;;34.22;26.50
35716;BME280;21840;44.920;8.616;2023-06-22T08:56:18;100690.16;;;34.18;25.48
35716;BME280;21840;44.920;8.616;2023-06-22T08:58:44;100686.91;;;34.15;25.76
35716;BME280;21840;44.920;8.616;2023-06-22T09:01:09;100691.84;;;34.08;25.58
35716;BME280;21840;44.920;8.616;2023-06-22T09:03:41;100704.06;;;34.16;25.97
35716;BME280;21840;44.920;8.616;2023-06-22T09:06:07;100702.81;;;33.98;25.18
35716;BME280;21840;44.920;8.616;2023-06-22T09:08:35;100696.81;;;34.35;25.21
35716;BME280;21840;44.920;8.616;2023-06-22T09:11:00;100694.94;;;34.65;24.83
35716;BME280;21840;44.920;8.616;2023-06-22T09:13:27;100685.91;;;34.35;24.95
35716;BME280;21840;44.920;8.616;2023-06-22T09:15:53;100691.28;;;34.46;24.83
35716;BME280;21840;44.920;8.616;2023-06-22T09:18:19;100680.53;;;34.54;24.92
35716;BME280;21840;44.920;8.616;2023-06-22T09:20:45;100671.53;;;34.59;24.75
35716;BME280;21840;44.920;8.616;2023-06-22T09:23:10;100669.28;;;34.66;24.72
35716;BME280;21840;44.920;8.616;2023-06-22T09:25:36;100661.16;;;34.61;24.33
35716;BME280;21840;44.920;8.616;2023-06-22T09:28:02;100654.91;;;34.55;24.35
35716;BME280;21840;44.920;8.616;2023-06-22T09:30:27;100657.22;;;33.69;24.84
35716;BME280;21840;44.920;8.616;2023-06-22T09:32:53;100654.34;;;33.95;24.89
35716;BME280;21840;44.920;8.616;2023-06-22T09:35:19;100640.66;;;34.34;24.83
35716;BME280;21840;44.920;8.616;2023-06-22T09:37:45;100638.16;;;34.04;25.10
35716;BME280;21840;44.920;8.616;2023-06-22T09:40:11;100624.66;;;34.28;25.03
35716;BME280;21840;44.920;8.616;2023-06-22T09:42:39;100620.97;;;34.67;24.74
35716;BME280;21840;44.920;8.616;2023-06-22T09:45:05;100619.25;;;34.76;24.68
35716;BME280;21840;44.920;8.616;2023-06-22T09:47:31;100608.34;;;34.76;24.39
35716;BME280;21840;44.920;8.616;2023-06-22T09:49:56;100608.47;;;34.90;23.93
35716;BME280;21840;44.920;8.616;2023-06-22T09:52:24;100598.00;;;34.73;24.59
35716;BME280;21840;44.920;8.616;2023-06-22T09:54:49;100589.97;;;34.57;24.39
35716;BME280;21840;44.920;8.616;2023-06-22T09:57:15;100581.66;;;34.92;24.30
35716;BME280;21840;44.920;8.616;2023-06-22T09:59:41;100579.38;;;35.23;24.09
35716;BME280;21840;44.920;8.616;2023-06-22T10:02:07;100573.91;;;35.42;23.80
35716;BME280;21840;44.920;8.616;2023-06-22T10:04:34;100576.50;;;35.33;24.21
35716;BME280;21840;44.920;8.616;2023-06-22T10:07:00;100575.25;;;35.01;24.43
35716;BME280;21840;44.920;8.616;2023-06-22T10:09:26;100569.13;;;35.15;24.60
35716;BME280;21840;44.920;8.616;2023-06-22T10:11:51;100563.63;;;34.72;25.51
35716;BME280;21840;44.920;8.616;2023-06-22T10:14:17;100562.25;;;35.17;25.51
35716;BME280;21840;44.920;8.616;2023-06-22T10:16:43;100546.53;;;35.28;25.21
35716;BME280;21840;44.920;8.616;2023-06-22T10:19:08;100552.13;;;35.37;24.99
35716;BME280;21840;44.920;8.616;2023-06-22T10:21:34;100549.19;;;35.33;25.31
35716;BME280;21840;44.920;8.616;2023-06-22T10:24:00;100551.00;;;35.57;25.33
35716;BME280;21840;44.920;8.616;2023-06-22T10:26:32;100543.41;;;35.86;24.93
35716;BME280;21840;44.920;8.616;2023-06-22T10:28:57;100546.84;;;36.11;24.84
35716;BME280;21840;44.920;8.616;2023-06-22T10:31:23;100545.31;;;36.05;24.84
35716;BME280;21840;44.920;8.616;2023-06-22T10:33:48;100545.34;;;36.19;24.79
35716;BME280;21840;44.920;8.616;2023-06-22T10:36:15;100546.88;;;36.53;24.20
35716;BME280;21840;44.920;8.616;2023-06-22T10:38:40;100563.59;;;36.51;24.12
35716;BME280;21840;44.920;8.616;2023-06-22T10:41:06;100554.78;;;36.68;24.13
35716;BME280;21840;44.920;8.616;2023-06-22T10:43:32;100556.19;;;36.79;23.59
35716;BME280;21840;44.920;8.616;2023-06-22T10:45:57;100558.31;;;37.10;23.69
35716;BME280;21840;44.920;8.616;2023-06-22T10:48:23;100557.66;;;36.99;23.70
35716;BME280;21840;44.920;8.616;2023-06-22T10:50:48;100550.19;;;36.91;22.96
35716;BME280;21840;44.920;8.616;2023-06-22T10:53:14;100548.44;;;37.09;22.70
35716;BME280;21840;44.920;8.616;2023-06-22T10:55:42;100549.75;;;37.11;22.43
35716;BME280;21840;44.920;8.616;2023-06-22T10:58:08;100538.22;;;37.15;22.57
35716;BME280;21840;44.920;8.616;2023-06-22T11:00:33;100541.88;;;37.10;22.28
35716;BME280;21840;44.920;8.616;2023-06-22T11:02:59;100535.97;;;37.39;22.03
35716;BME280;21840;44.920;8.616;2023-06-22T11:05:24;100543.69;;;37.15;22.64
35716;BME280;21840;44.920;8.616;2023-06-22T11:07:50;100540.47;;;37.35;21.95
35716;BME280;21840;44.920;8.616;2023-06-22T11:10:16;100545.44;;;37.33;22.19
35716;BME280;21840;44.920;8.616;2023-06-22T11:12:41;100540.66;;;37.61;22.19
35716;BME280;21840;44.920;8.616;2023-06-22T11:15:11;100538.22;;;37.37;22.40
35716;BME280;21840;44.920;8.616;2023-06-22T11:17:37;100538.84;;;37.56;21.96
35716;BME280;21840;44.920;8.616;2023-06-22T11:20:02;100540.72;;;37.92;21.91
35716;BME280;21840;44.920;8.616;2023-06-22T11:22:35;100541.34;;;37.67;21.91
35716;BME280;21840;44.920;8.616;2023-06-22T11:25:00;100544.38;;;37.88;21.90
35716;BME280;21840;44.920;8.616;2023-06-22T11:27:26;100544.88;;;38.12;21.42
35716;BME280;21840;44.920;8.616;2023-06-22T11:29:51;100550.38;;;38.21;21.19
35716;BME280;21840;44.920;8.616;2023-06-22T11:32:18;100553.03;;;38.35;20.94
35716;BME280;21840;44.920;8.616;2023-06-22T11:34:43;100556.34;;;38.14;21.05
35716;BME280;21840;44.920;8.616;2023-06-22T11:37:09;100554.81;;;38.39;20.72
35716;BME280;21840;44.920;8.616;2023-06-22T11:39:34;100555.03;;;38.12;20.70
35716;BME280;21840;44.920;8.616;2023-06-22T11:42:00;100555.78;;;38.44;20.51
35716;BME280;21840;44.920;8.616;2023-06-22T11:44:25;100559.09;;;38.63;20.37
35716;BME280;21840;44.920;8.616;2023-06-22T11:46:51;100555.75;;;38.75;20.33
35716;BME280;21840;44.920;8.616;2023-06-22T11:49:18;100556.25;;;38.86;20.12
35716;BME280;21840;44.920;8.616;2023-06-22T11:51:43;100557.59;;;38.97;19.98
35716;BME280;21840;44.920;8.616;2023-06-22T11:54:09;100557.53;;;38.79;20.24
35716;BME280;21840;44.920;8.616;2023-06-22T11:56:34;100538.44;;;38.57;20.05
35716;BME280;21840;44.920;8.616;2023-06-22T11:59:00;100522.50;;;38.94;19.93
35716;BME280;21840;44.920;8.616;2023-06-22T12:01:25;100511.53;;;39.20;19.58
35716;BME280;21840;44.920;8.616;2023-06-22T12:03:51;100512.84;;;39.05;19.85
35716;BME280;21840;44.920;8.616;2023-06-22T12:06:17;100492.97;;;39.08;20.00
35716;BME280;21840;44.920;8.616;2023-06-22T12:08:42;100474.53;;;39.09;19.70
35716;BME280;21840;44.920;8.616;2023-06-22T12:11:08;100457.41;;;38.86;20.24
35716;BME280;21840;44.920;8.616;2023-06-22T12:13:33;100434.16;;;39.00;19.79
35716;BME280;21840;44.920;8.616;2023-06-22T12:15:59;100427.69;;;39.05;19.70
35716;BME280;21840;44.920;8.616;2023-06-22T12:18:24;100388.91;;;39.15;19.92
35716;BME280;21840;44.920;8.616;2023-06-22T12:20:50;100381.19;;;39.00;20.09
35716;BME280;21840;44.920;8.616;2023-06-22T12:23:18;100397.13;;;39.15;20.07
35716;BME280;21840;44.920;8.616;2023-06-22T12:25:45;100391.16;;;39.13;20.06
35716;BME280;21840;44.920;8.616;2023-06-22T12:28:11;100395.84;;;39.13;20.64
35716;BME280;21840;44.920;8.616;2023-06-22T12:30:36;100414.91;;;39.09;20.11
35716;BME280;21840;44.920;8.616;2023-06-22T12:33:02;100403.13;;;39.17;19.48
35716;BME280;21840;44.920;8.616;2023-06-22T12:35:27;100395.72;;;39.00;19.92
35716;BME280;21840;44.920;8.616;2023-06-22T12:37:53;100406.97;;;39.16;19.53
35716;BME280;21840;44.920;8.616;2023-06-22T12:40:18;100415.84;;;39.31;19.91
35716;BME280;21840;44.920;8.616;2023-06-22T12:42:45;100427.81;;;39.26;19.64
35716;BME280;21840;44.920;8.616;2023-06-22T12:45:10;100421.50;;;39.25;19.67
35716;BME280;21840;44.920;8.616;2023-06-22T12:47:36;100421.06;;;39.15;19.60
35716;BME280;21840;44.920;8.616;2023-06-22T12:50:01;100420.75;;;39.08;19.85
35716;BME280;21840;44.920;8.616;2023-06-22T12:52:30;100423.13;;;39.26;19.75
35716;BME280;21840;44.920;8.616;2023-06-22T12:54:56;100429.31;;;39.71;19.55
35716;BME280;21840;44.920;8.616;2023-06-22T12:57:22;100431.47;;;39.56;19.71